createdAt,value
2018-09-11T00:01:04.875Z,14.00
2018-09-11T00:02:40.125Z,16.00
2018-09-11T00:04:15.839Z,13.20
2018-09-11T00:05:51.254Z,13.20
2018-09-11T00:07:27.052Z,14.20
2018-09-11T00:09:02.289Z,14.20
2018-09-11T00:10:37.231Z,12.20
2018-09-11T00:12:14.085Z,14.00
2018-09-11T00:13:50.081Z,11.80
2018-09-11T00:15:25.682Z,13.60
2018-09-11T00:17:00.808Z,10.60
2018-09-11T00:18:36.264Z,12.80
2018-09-11T00:20:12.158Z,13.40
2018-09-11T00:21:47.313Z,13.20
2018-09-11T00:23:23.079Z,14.40
2018-09-11T00:24:59.808Z,13.20
2018-09-11T00:26:34.720Z,13.60
2018-09-11T00:28:09.640Z,12.40
2018-09-11T00:29:46.350Z,12.20
2018-09-11T00:31:25.740Z,11.20
2018-09-11T00:33:01.939Z,12.20
2018-09-11T00:34:37.599Z,11.80
2018-09-11T00:36:15.080Z,14.40
2018-09-11T00:37:50.660Z,9.00
2018-09-11T00:39:26.367Z,14.00
2018-09-11T00:41:03.389Z,7.40
2018-09-11T00:42:38.503Z,10.20
2018-09-11T00:44:13.862Z,9.60
2018-09-11T00:45:52.435Z,11.20
2018-09-11T00:47:27.274Z,10.00
2018-09-11T00:49:03.400Z,12.60
2018-09-11T00:50:38.200Z,10.80
2018-09-11T00:52:13.575Z,8.60
2018-09-11T00:53:49.321Z,13.40
2018-09-11T00:55:25.892Z,11.60
2018-09-11T00:57:01.163Z,12.40
2018-09-11T00:58:40.057Z,6.60
2018-09-11T01:00:18.185Z,12.60
2018-09-11T01:01:59.322Z,8.00
2018-09-11T01:03:38.331Z,11.20
2018-09-11T01:05:24.716Z,13.40
2018-09-11T01:07:08.691Z,13.00
2018-09-11T01:08:50.605Z,10.00
2018-09-11T01:10:32.386Z,10.20
2018-09-11T01:12:11.046Z,14.20
2018-09-11T01:13:48.749Z,10.00
2018-09-11T01:15:27.484Z,12.20
2018-09-11T01:17:06.985Z,13.00
2018-09-11T01:18:46.467Z,10.00
2018-09-11T01:20:23.919Z,14.80
2018-09-11T01:22:06.306Z,9.20
2018-09-11T01:23:42.771Z,12.00
2018-09-11T01:25:20.290Z,12.20
2018-09-11T01:26:57.057Z,12.40
2018-09-11T01:28:31.983Z,15.20
2018-09-11T01:30:08.909Z,14.80
2018-09-11T01:31:45.530Z,14.40
2018-09-11T01:33:21.205Z,14.60
2018-09-11T01:34:57.387Z,16.80
2018-09-11T01:36:32.607Z,12.80
2018-09-11T01:38:09.558Z,14.20
2018-09-11T01:39:45.129Z,10.40
2018-09-11T01:41:20.684Z,11.40
2018-09-11T01:42:56.089Z,7.20
2018-09-11T01:44:31.926Z,14.60
2018-09-11T01:46:08.042Z,6.20
2018-09-11T01:47:43.670Z,12.00
2018-09-11T01:49:19.944Z,9.40
2018-09-11T01:50:56.004Z,12.60
2018-09-11T01:52:31.510Z,12.00
2018-09-11T01:54:06.833Z,15.20
2018-09-11T01:55:41.894Z,13.80
2018-09-11T01:57:17.993Z,12.00
2018-09-11T01:58:56.599Z,16.80
2018-09-11T02:00:31.948Z,11.60
2018-09-11T02:02:07.427Z,12.20
2018-09-11T02:03:42.699Z,13.00
2018-09-11T02:05:18.664Z,12.80
2018-09-11T02:06:53.652Z,11.60
2018-09-11T02:08:29.161Z,12.40
2018-09-11T02:10:04.591Z,12.20
2018-09-11T02:11:40.877Z,15.40
2018-09-11T02:13:16.897Z,15.60
2018-09-11T02:14:53.835Z,12.00
2018-09-11T02:16:29.053Z,13.40
2018-09-11T02:18:07.697Z,11.60
2018-09-11T02:19:42.801Z,12.20
2018-09-11T02:21:18.847Z,14.20
2018-09-11T02:22:53.867Z,14.20
2018-09-11T02:24:29.047Z,12.60
2018-09-11T02:26:06.171Z,12.20
2018-09-11T02:27:41.286Z,15.40
2018-09-11T02:29:16.372Z,13.80
2018-09-11T02:30:54.201Z,11.60
2018-09-11T02:32:29.891Z,12.80
2018-09-11T02:34:05.929Z,13.80
2018-09-11T02:35:41.208Z,12.60
2018-09-11T02:37:16.464Z,16.00
2018-09-11T02:38:51.706Z,15.60
2018-09-11T02:40:26.773Z,12.00
2018-09-11T02:42:02.373Z,15.20
2018-09-11T02:43:38.590Z,18.80
2018-09-11T02:45:14.990Z,14.20
2018-09-11T02:46:50.210Z,15.80
2018-09-11T02:48:25.381Z,13.80
2018-09-11T02:50:01.245Z,17.60
2018-09-11T02:51:36.899Z,16.40
2018-09-11T02:53:11.965Z,17.60
2018-09-11T02:54:47.308Z,12.80
2018-09-11T02:56:23.693Z,19.20
2018-09-11T02:57:58.992Z,20.40
2018-09-11T02:59:34.333Z,14.60
2018-09-11T03:01:10.716Z,19.20
2018-09-11T03:02:47.586Z,14.80
2018-09-11T03:04:23.188Z,18.20
2018-09-11T03:05:58.688Z,16.80
2018-09-11T03:07:33.928Z,15.40
2018-09-11T03:09:12.571Z,19.40
2018-09-11T03:10:48.028Z,15.20
2018-09-11T03:12:25.994Z,18.60
2018-09-11T03:14:01.983Z,14.80
2018-09-11T03:15:37.282Z,15.00
2018-09-11T03:17:14.072Z,7.00
2018-09-11T03:18:49.559Z,18.00
2018-09-11T03:20:25.890Z,20.40
2018-09-11T03:22:01.494Z,15.60
2018-09-11T03:23:36.830Z,12.00
2018-09-11T03:25:13.070Z,13.20
2018-09-11T03:26:51.570Z,13.80
2018-09-11T03:28:27.579Z,11.20
2018-09-11T03:30:05.608Z,13.80
2018-09-11T03:31:40.908Z,12.60
2018-09-11T03:33:16.142Z,11.20
2018-09-11T03:34:51.924Z,13.40
2018-09-11T03:36:27.905Z,10.00
2018-09-11T03:38:03.418Z,12.40
2018-09-11T03:39:39.299Z,12.80
2018-09-11T03:41:14.493Z,12.20
2018-09-11T03:42:49.705Z,10.00
2018-09-11T03:44:25.963Z,11.60
2018-09-11T03:46:01.666Z,12.80
2018-09-11T03:47:36.515Z,9.80
2018-09-11T03:49:12.670Z,7.40
2018-09-11T03:50:48.478Z,14.60
2018-09-11T03:52:23.637Z,10.00
2018-09-11T03:53:58.732Z,10.80
2018-09-11T03:55:33.620Z,12.20
2018-09-11T03:57:08.578Z,11.80
2018-09-11T03:58:43.657Z,13.80
2018-09-11T04:00:18.733Z,12.00
2018-09-11T04:01:54.492Z,9.60
2018-09-11T04:03:29.760Z,7.00
2018-09-11T04:05:04.717Z,11.20
2018-09-11T04:06:40.019Z,6.60
2018-09-11T04:08:14.835Z,7.40
2018-09-11T04:09:50.275Z,7.40
2018-09-11T04:11:25.620Z,12.40
2018-09-11T04:13:00.464Z,9.40
2018-09-11T04:14:35.257Z,5.40
2018-09-11T04:16:10.170Z,10.00
2018-09-11T04:17:45.564Z,9.00
2018-09-11T04:19:20.371Z,9.40
2018-09-11T04:20:56.319Z,10.00
2018-09-11T04:22:31.445Z,7.40
2018-09-11T04:24:06.258Z,6.60
2018-09-11T04:25:41.883Z,6.60
2018-09-11T04:27:17.056Z,9.00
2018-09-11T04:28:54.115Z,9.20
2018-09-11T04:30:29.151Z,9.80
2018-09-11T04:32:04.776Z,6.40
2018-09-11T04:33:40.366Z,8.20
2018-09-11T04:35:17.672Z,7.40
2018-09-11T04:36:53.400Z,5.20
2018-09-11T04:38:28.478Z,9.40
2018-09-11T04:40:03.423Z,9.00
2018-09-11T04:41:40.910Z,9.00
2018-09-11T04:43:16.387Z,7.00
2018-09-11T04:44:51.956Z,9.40
2018-09-11T04:46:27.498Z,11.20
2018-09-11T04:48:02.913Z,8.40
2018-09-11T04:49:39.091Z,10.20
2018-09-11T04:51:14.867Z,6.00
2018-09-11T04:52:49.920Z,8.80
2018-09-11T04:54:25.338Z,6.80
2018-09-11T04:56:02.146Z,8.40
2018-09-11T04:57:37.757Z,7.20
2018-09-11T04:59:12.684Z,7.00
2018-09-11T05:00:48.220Z,7.00
2018-09-11T05:02:23.054Z,4.60
2018-09-11T05:03:58.125Z,6.80
2018-09-11T05:05:33.135Z,9.80
2018-09-11T05:07:08.281Z,6.40
2018-09-11T05:08:44.142Z,7.40
2018-09-11T05:10:19.149Z,7.60
2018-09-11T05:11:54.808Z,5.80
2018-09-11T05:13:30.045Z,5.80
2018-09-11T05:15:07.362Z,7.80
2018-09-11T05:16:43.960Z,4.20
2018-09-11T05:18:22.200Z,4.00
2018-09-11T05:19:59.186Z,5.20
2018-09-11T05:21:34.192Z,5.20
2018-09-11T05:23:10.167Z,8.80
2018-09-11T05:24:45.970Z,4.00
2018-09-11T05:26:24.376Z,7.00
2018-09-11T05:28:00.706Z,6.60
2018-09-11T05:29:43.330Z,6.60
2018-09-11T05:31:44.904Z,7.00
2018-09-11T05:35:18.207Z,9.80
2018-09-11T05:36:53.327Z,7.60
2018-09-11T05:38:28.501Z,5.40
2018-09-11T05:40:03.589Z,7.00
2018-09-11T05:41:42.250Z,7.00
2018-09-11T05:43:17.241Z,5.40
2018-09-11T05:44:52.187Z,4.80
2018-09-11T05:46:28.272Z,5.80
2018-09-11T05:48:03.152Z,5.40
2018-09-11T05:49:38.079Z,5.00
2018-09-11T05:51:13.050Z,8.00
2018-09-11T05:52:47.916Z,4.00
2018-09-11T05:54:23.210Z,5.80
2018-09-11T05:56:02.300Z,5.40
2018-09-11T05:57:38.295Z,5.00
2018-09-11T05:59:13.116Z,4.00
2018-09-11T06:00:48.147Z,5.00
2018-09-11T06:02:23.431Z,4.00
2018-09-11T06:03:58.356Z,5.80
2018-09-11T06:05:33.235Z,7.00
2018-09-11T06:07:08.259Z,7.00
2018-09-11T06:08:44.299Z,6.20
2018-09-11T06:10:19.426Z,7.40
2018-09-11T06:11:54.628Z,5.40
2018-09-11T06:13:30.081Z,4.00
2018-09-11T06:15:07.924Z,6.20
2018-09-11T06:16:43.791Z,8.00
2018-09-11T06:18:19.171Z,5.00
2018-09-11T06:19:54.079Z,4.80
2018-09-11T06:21:29.316Z,5.40
2018-09-11T06:23:04.628Z,7.00
2018-09-11T06:24:40.415Z,5.00
2018-09-11T06:26:15.739Z,7.20
2018-09-11T06:27:52.247Z,2.80
2018-09-11T06:29:27.144Z,4.80
2018-09-11T06:31:03.736Z,4.60
2018-09-11T06:32:41.833Z,4.80
2018-09-11T06:34:16.652Z,5.40
2018-09-11T06:35:52.693Z,4.60
2018-09-11T06:37:28.039Z,5.60
2018-09-11T06:39:03.012Z,4.20
2018-09-11T06:40:38.186Z,5.00
2018-09-11T06:42:13.011Z,5.00
2018-09-11T06:43:48.443Z,6.00
2018-09-11T06:45:23.300Z,4.00
2018-09-11T06:46:58.632Z,4.00
2018-09-11T06:48:33.459Z,6.60
2018-09-11T06:50:09.278Z,4.40
2018-09-11T06:51:45.244Z,4.60
2018-09-11T06:53:22.275Z,4.80
2018-09-11T06:54:57.955Z,3.60
2018-09-11T06:56:33.350Z,2.40
2018-09-11T06:58:10.446Z,5.00
2018-09-11T06:59:45.575Z,5.00
2018-09-11T07:01:20.366Z,2.40
2018-09-11T07:02:55.360Z,5.00
2018-09-11T07:04:30.247Z,3.60
2018-09-11T07:06:06.221Z,4.40
2018-09-11T07:07:41.413Z,4.60
2018-09-11T07:09:18.193Z,5.00
2018-09-11T07:10:55.572Z,2.80
2018-09-11T07:12:32.600Z,2.40
2018-09-11T07:14:07.488Z,2.00
2018-09-11T07:15:43.082Z,2.40
2018-09-11T07:17:18.001Z,4.80
2018-09-11T07:18:53.747Z,1.60
2018-09-11T07:20:28.959Z,4.40
2018-09-11T07:22:05.484Z,2.80
2018-09-11T07:23:40.340Z,3.60
2018-09-11T07:25:16.303Z,2.00
2018-09-11T07:26:51.651Z,5.00
2018-09-11T07:28:28.013Z,4.00
2018-09-11T07:30:05.234Z,1.00
2018-09-11T07:31:40.608Z,4.60
2018-09-11T07:33:17.520Z,1.20
2018-09-11T07:34:53.785Z,4.00
2018-09-11T07:36:34.261Z,2.40
2018-09-11T07:38:09.766Z,2.00
2018-09-11T07:39:48.645Z,2.80
2018-09-11T07:41:24.057Z,1.80
2018-09-11T07:42:58.869Z,3.80
2018-09-11T07:44:34.443Z,4.00
2018-09-11T07:46:09.695Z,2.80
2018-09-11T07:47:44.614Z,2.00
2018-09-11T07:49:21.009Z,2.00
2018-09-11T07:50:59.785Z,2.00
2018-09-11T07:52:35.036Z,1.60
2018-09-11T07:54:10.087Z,2.60
2018-09-11T07:55:45.504Z,2.00
2018-09-11T07:57:20.272Z,4.40
2018-09-11T07:58:56.626Z,2.00
2018-09-11T08:00:34.636Z,3.00
2018-09-11T08:02:09.466Z,2.60
2018-09-11T08:03:45.840Z,2.20
2018-09-11T08:05:22.889Z,3.00
2018-09-11T08:07:00.329Z,2.00
2018-09-11T08:08:37.357Z,2.40
2018-09-11T08:10:17.024Z,2.80
2018-09-11T08:11:52.224Z,2.20
2018-09-11T08:13:29.441Z,1.60
2018-09-11T08:15:09.912Z,2.60
2018-09-11T08:16:44.724Z,2.00
2018-09-11T08:18:20.204Z,1.40
2018-09-11T08:19:58.684Z,2.80
2018-09-11T08:21:34.129Z,2.00
2018-09-11T08:23:09.265Z,1.00
2018-09-11T08:24:46.379Z,2.60
2018-09-11T08:26:21.606Z,1.40
2018-09-11T08:27:56.414Z,2.00
2018-09-11T08:29:35.112Z,1.20
2018-09-11T08:31:10.189Z,1.00
2018-09-11T08:32:45.954Z,2.80
2018-09-11T08:34:20.817Z,0.00
2018-09-11T08:35:57.323Z,1.40
2018-09-11T08:37:32.927Z,1.40
2018-09-11T08:39:12.305Z,1.00
2018-09-11T08:40:48.999Z,1.00
2018-09-11T08:42:23.966Z,0.20
2018-09-11T08:44:00.013Z,1.00
2018-09-11T08:45:36.759Z,0.20
2018-09-11T08:47:13.469Z,0.80
2018-09-11T08:48:49.731Z,2.40
2018-09-11T08:50:25.331Z,1.60
2018-09-11T08:52:00.649Z,1.00
2018-09-11T08:53:36.453Z,2.00
2018-09-11T08:55:13.977Z,2.60
2018-09-11T08:56:50.505Z,2.00
2018-09-11T08:58:25.945Z,1.00
2018-09-11T09:00:04.963Z,1.40
2018-09-11T09:01:41.186Z,2.40
2018-09-11T09:03:16.013Z,2.00
2018-09-11T09:04:50.925Z,2.00
2018-09-11T09:06:26.194Z,2.40
2018-09-11T09:08:02.412Z,2.00
2018-09-11T09:09:39.105Z,2.00
2018-09-11T09:11:14.660Z,1.60
2018-09-11T09:12:49.764Z,2.20
2018-09-11T09:14:25.065Z,3.20
2018-09-11T09:16:00.365Z,3.00
2018-09-11T09:17:35.611Z,2.00
2018-09-11T09:19:11.511Z,2.00
2018-09-11T09:20:49.266Z,2.40
2018-09-11T09:22:24.665Z,3.00
2018-09-11T09:24:00.135Z,3.00
2018-09-11T09:25:37.451Z,3.60
2018-09-11T09:27:13.190Z,2.00
2018-09-11T09:28:49.274Z,3.80
2018-09-11T09:30:28.523Z,3.20
2018-09-11T09:32:05.251Z,3.00
2018-09-11T09:33:40.829Z,2.60
2018-09-11T09:35:19.199Z,2.60
2018-09-11T09:36:54.436Z,2.20
2018-09-11T09:38:31.160Z,2.80
2018-09-11T09:40:11.099Z,3.00
2018-09-11T09:41:46.376Z,8.40
2018-09-11T09:43:22.593Z,7.00
2018-09-11T09:44:59.200Z,6.00
2018-09-11T09:46:35.107Z,5.20
2018-09-11T09:48:10.860Z,4.80
2018-09-11T09:49:47.304Z,6.80
2018-09-11T09:51:24.021Z,8.00
2018-09-11T09:53:01.366Z,5.40
2018-09-11T09:54:38.173Z,7.00
2018-09-11T09:56:15.049Z,6.00
2018-09-11T09:57:50.308Z,4.40
2018-09-11T09:59:26.812Z,5.40
2018-09-11T10:01:10.777Z,8.40
2018-09-11T10:03:16.776Z,7.00
2018-09-11T10:04:52.026Z,6.60
2018-09-11T10:06:28.083Z,7.20
2018-09-11T10:08:03.404Z,6.80
2018-09-11T10:09:38.609Z,6.40
2018-09-11T10:11:14.689Z,4.60
2018-09-11T10:12:51.741Z,3.80
2018-09-11T10:14:26.708Z,6.00
2018-09-11T10:16:03.732Z,5.80
2018-09-11T10:17:39.555Z,4.80
2018-09-11T10:19:15.366Z,6.00
2018-09-11T10:20:52.811Z,4.00
2018-09-11T10:22:28.174Z,6.20
2018-09-11T10:24:06.138Z,9.00
2018-09-11T10:25:41.590Z,6.20
2018-09-11T10:27:16.584Z,4.40
2018-09-11T10:28:53.445Z,4.40
2018-09-11T10:30:31.693Z,4.00
2018-09-11T10:32:08.052Z,4.00
2018-09-11T10:33:45.096Z,3.80
2018-09-11T10:35:23.719Z,5.00
2018-09-11T10:36:58.600Z,4.20
2018-09-11T10:38:33.839Z,3.00
2018-09-11T10:40:08.755Z,5.80
2018-09-11T10:41:45.222Z,5.00
2018-09-11T10:43:20.136Z,4.00
2018-09-11T10:44:55.820Z,3.60
2018-09-11T10:46:35.914Z,3.20
2018-09-11T10:48:11.179Z,4.80
2018-09-11T10:49:47.421Z,4.00
2018-09-11T10:51:23.510Z,3.80
2018-09-11T10:53:00.147Z,3.00
2018-09-11T10:54:34.992Z,4.00
2018-09-11T10:56:09.915Z,3.40
2018-09-11T10:57:45.075Z,3.80
2018-09-11T10:59:19.966Z,3.40
2018-09-11T11:00:55.416Z,4.00
2018-09-11T11:02:30.269Z,4.80
2018-09-11T11:04:05.467Z,2.40
2018-09-11T11:05:40.270Z,6.20
2018-09-11T11:07:15.482Z,4.00
2018-09-11T11:08:50.556Z,5.00
2018-09-11T11:10:33.078Z,4.00
2018-09-11T11:12:09.222Z,3.00
2018-09-11T11:13:44.194Z,4.00
2018-09-11T11:15:19.344Z,4.00
2018-09-11T11:16:54.555Z,3.20
2018-09-11T11:18:29.895Z,4.40
2018-09-11T11:20:05.269Z,5.00
2018-09-11T11:21:40.413Z,4.60
2018-09-11T11:23:16.594Z,5.80
2018-09-11T11:24:51.810Z,4.00
2018-09-11T11:26:29.306Z,3.60
2018-09-11T11:28:05.109Z,5.20
2018-09-11T11:29:40.613Z,5.00
2018-09-11T11:31:16.224Z,5.40
2018-09-11T11:32:52.777Z,5.00
2018-09-11T11:34:28.528Z,1.00
2018-09-11T11:36:06.162Z,2.40
2018-09-11T11:37:45.532Z,2.20
2018-09-11T11:39:22.185Z,4.00
2018-09-11T11:40:58.264Z,4.00
2018-09-11T11:42:36.213Z,4.00
2018-09-11T11:44:12.584Z,3.00
2018-09-11T11:45:52.525Z,3.00
2018-09-11T11:47:32.099Z,3.00
2018-09-11T11:49:08.371Z,3.80
2018-09-11T11:50:47.754Z,4.20
2018-09-11T11:52:23.565Z,4.00
2018-09-11T11:53:59.452Z,5.00
2018-09-11T11:55:34.784Z,1.40
2018-09-11T11:57:10.431Z,5.00
2018-09-11T11:58:46.928Z,3.20
2018-09-11T12:00:21.949Z,3.00
2018-09-11T12:01:57.454Z,3.40
2018-09-11T12:03:34.337Z,3.60
2018-09-11T12:05:11.772Z,3.00
2018-09-11T12:06:47.393Z,3.00
2018-09-11T12:08:24.613Z,4.40
2018-09-11T12:10:00.788Z,4.80
2018-09-11T12:11:36.132Z,3.80
2018-09-11T12:13:12.036Z,2.00
2018-09-11T12:14:52.717Z,3.40
2018-09-11T12:16:29.869Z,3.20
2018-09-11T12:18:06.845Z,3.00
2018-09-11T12:19:43.516Z,4.00
2018-09-11T12:21:18.394Z,5.60
2018-09-11T12:22:57.901Z,4.60
2018-09-11T12:24:33.799Z,2.60
2018-09-11T12:26:09.491Z,2.80
2018-09-11T12:27:44.707Z,3.00
2018-09-11T12:29:20.954Z,3.40
2018-09-11T12:30:57.439Z,3.40
2018-09-11T12:32:32.570Z,4.00
2018-09-11T12:34:10.649Z,5.00
2018-09-11T12:35:46.527Z,2.40
2018-09-11T12:37:23.250Z,4.00
2018-09-11T12:38:58.298Z,3.40
2018-09-11T12:40:34.775Z,3.00
2018-09-11T12:42:10.340Z,3.60
2018-09-11T12:43:46.200Z,2.40
2018-09-11T12:45:23.321Z,4.00
2018-09-11T12:47:02.880Z,3.00
2018-09-11T12:48:43.116Z,3.40
2018-09-11T12:50:19.763Z,2.60
2018-09-11T12:51:59.728Z,3.40
2018-09-11T12:53:36.276Z,3.60
2018-09-11T12:55:13.678Z,2.80
2018-09-11T12:56:50.220Z,2.00
2018-09-11T12:58:26.270Z,2.00
2018-09-11T13:00:04.811Z,2.20
2018-09-11T13:01:41.282Z,3.80
2018-09-11T13:03:19.470Z,4.00
2018-09-11T13:04:55.526Z,3.00
2018-09-11T13:06:32.448Z,3.80
2018-09-11T13:08:08.272Z,2.00
2018-09-11T13:09:47.389Z,3.40
2018-09-11T13:11:24.083Z,3.00
2018-09-11T13:13:00.752Z,2.60
2018-09-11T13:14:40.774Z,2.00
2018-09-11T13:16:22.052Z,3.60
2018-09-11T13:18:02.031Z,3.20
2018-09-11T13:19:39.385Z,3.20
2018-09-11T13:21:17.444Z,3.40
2018-09-11T13:22:55.347Z,2.40
2018-09-11T13:24:40.397Z,3.20
2018-09-11T13:26:19.297Z,3.00
2018-09-11T13:27:56.971Z,3.00
2018-09-11T13:29:35.712Z,2.00
2018-09-11T13:31:13.362Z,2.40
2018-09-11T13:32:51.105Z,3.40
2018-09-11T13:34:32.640Z,4.40
2018-09-11T13:36:12.385Z,4.60
2018-09-11T13:37:48.434Z,4.40
2018-09-11T13:39:25.575Z,3.00
2018-09-11T13:41:01.018Z,4.00
2018-09-11T13:42:37.776Z,3.00
2018-09-11T13:44:14.406Z,2.80
2018-09-11T13:45:57.034Z,3.00
2018-09-11T13:47:35.083Z,3.00
2018-09-11T13:49:11.858Z,5.00
2018-09-11T13:50:49.803Z,3.00
2018-09-11T13:52:26.134Z,3.40
2018-09-11T13:54:01.965Z,4.40
2018-09-11T13:55:40.657Z,3.40
2018-09-11T13:57:20.035Z,2.40
2018-09-11T13:58:56.525Z,5.20
2018-09-11T14:00:33.884Z,4.00
2018-09-11T14:02:12.118Z,4.60
2018-09-11T14:03:50.679Z,4.00
2018-09-11T14:05:28.623Z,4.00
2018-09-11T14:07:11.598Z,4.40
2018-09-11T14:08:49.316Z,4.20
2018-09-11T14:10:32.112Z,3.20
2018-09-11T14:12:09.397Z,5.00
2018-09-11T14:13:46.911Z,4.40
2018-09-11T14:15:24.291Z,1.60
2018-09-11T14:17:01.348Z,5.00
2018-09-11T14:18:37.022Z,3.00
2018-09-11T14:20:12.767Z,4.40
2018-09-11T14:21:48.751Z,3.00
2018-09-11T14:23:25.547Z,4.20
2018-09-11T14:25:01.080Z,4.00
2018-09-11T14:26:37.112Z,4.00
2018-09-11T14:28:15.260Z,3.40
2018-09-11T14:29:52.756Z,4.00
2018-09-11T14:31:31.779Z,1.80
2018-09-11T14:33:10.319Z,4.00
2018-09-11T14:34:51.071Z,4.80
2018-09-11T14:36:37.546Z,5.00
2018-09-11T14:38:15.493Z,3.60
2018-09-11T14:39:51.777Z,4.20
2018-09-11T14:41:28.947Z,2.00
2018-09-11T14:43:05.014Z,4.00
2018-09-11T14:44:48.964Z,1.00
2018-09-11T14:46:28.781Z,4.00
2018-09-11T14:48:14.314Z,4.60
2018-09-11T14:49:52.523Z,4.80
2018-09-11T14:51:30.733Z,3.00
2018-09-11T14:53:07.630Z,3.00
2018-09-11T14:54:44.562Z,4.60
2018-09-11T14:56:22.725Z,3.40
2018-09-11T14:58:01.930Z,3.00
2018-09-11T14:59:42.276Z,5.00
2018-09-11T15:01:24.039Z,5.20
2018-09-11T15:03:00.946Z,4.40
2018-09-11T15:04:38.333Z,3.80
2018-09-11T15:06:23.024Z,3.60
2018-09-11T15:08:03.579Z,5.20
2018-09-11T15:09:47.629Z,1.00
2018-09-11T15:11:26.372Z,5.00
2018-09-11T15:13:04.553Z,3.60
2018-09-11T15:14:44.318Z,5.00
2018-09-11T15:16:23.363Z,4.00
2018-09-11T15:17:58.661Z,3.00
2018-09-11T15:19:34.845Z,4.00
2018-09-11T15:21:11.859Z,4.00
2018-09-11T15:22:50.242Z,5.00
2018-09-11T15:24:28.848Z,4.60
2018-09-11T15:26:06.106Z,3.00
2018-09-11T15:27:42.373Z,4.00
2018-09-11T15:29:19.256Z,4.80
2018-09-11T15:30:55.961Z,4.60
2018-09-11T15:32:35.551Z,3.60
2018-09-11T15:34:11.421Z,5.20
2018-09-11T15:35:49.562Z,4.80
2018-09-11T15:37:25.504Z,4.80
2018-09-11T15:39:09.575Z,3.20
2018-09-11T15:40:47.283Z,4.60
2018-09-11T15:42:23.604Z,4.00
2018-09-11T15:43:59.225Z,4.00
2018-09-11T15:45:36.254Z,3.60
2018-09-11T15:47:13.101Z,4.40
2018-09-11T15:48:50.853Z,3.00
2018-09-11T15:50:26.093Z,4.40
2018-09-11T15:52:01.600Z,3.80
2018-09-11T15:53:37.847Z,4.00
2018-09-11T15:55:14.583Z,3.60
2018-09-11T15:56:52.028Z,4.40
2018-09-11T15:58:36.556Z,4.00
2018-09-11T16:00:39.037Z,4.80
2018-09-11T16:02:43.626Z,3.20
2018-09-11T16:04:31.867Z,6.40
2018-09-11T16:06:11.951Z,6.60
2018-09-11T16:07:52.176Z,5.80
2018-09-11T16:09:31.356Z,5.00
2018-09-11T16:11:10.871Z,8.60
2018-09-11T16:12:48.263Z,10.00
2018-09-11T16:14:29.711Z,4.60
2018-09-11T16:16:08.123Z,4.00
2018-09-11T16:17:51.279Z,4.00
2018-09-11T16:19:30.957Z,5.20
2018-09-11T16:21:09.923Z,4.20
2018-09-11T16:22:48.502Z,5.00
2018-09-11T16:24:26.903Z,3.20
2018-09-11T16:26:09.122Z,3.00
2018-09-11T16:27:44.817Z,4.00
2018-09-11T16:29:23.588Z,1.20
2018-09-11T16:31:03.932Z,4.80
2018-09-11T16:32:43.939Z,3.20
2018-09-11T16:34:28.042Z,6.00
2018-09-11T16:36:06.293Z,4.00
2018-09-11T16:37:45.404Z,6.00
2018-09-11T16:39:37.343Z,4.80
2018-09-11T16:41:22.341Z,5.00
2018-09-11T16:43:07.966Z,3.20
2018-09-11T16:44:51.304Z,5.80
2018-09-11T16:46:35.676Z,4.20
2018-09-11T16:48:13.980Z,4.40
2018-09-11T16:49:57.365Z,3.40
2018-09-11T16:51:37.053Z,3.20
2018-09-11T16:53:13.260Z,2.60
2018-09-11T16:54:50.453Z,4.40
2018-09-11T16:56:29.017Z,4.00
2018-09-11T16:58:11.020Z,2.40
2018-09-11T16:59:49.069Z,5.00
2018-09-11T17:01:25.205Z,6.00
2018-09-11T17:03:09.235Z,5.80
2018-09-11T17:04:51.584Z,6.80
2018-09-11T17:06:36.076Z,6.60
2018-09-11T17:08:15.217Z,7.40
2018-09-11T17:09:52.658Z,6.40
2018-09-11T17:11:30.592Z,6.00
2018-09-11T17:13:10.624Z,6.40
2018-09-11T17:14:48.220Z,7.00
2018-09-11T17:16:25.934Z,6.00
2018-09-11T17:18:05.403Z,4.60
2018-09-11T17:19:42.263Z,6.00
2018-09-11T17:21:27.188Z,5.80
2018-09-11T17:23:03.956Z,9.40
2018-09-11T17:24:44.220Z,6.00
2018-09-11T17:26:23.266Z,5.60
2018-09-11T17:29:48.019Z,5.20
2018-09-11T17:31:31.283Z,5.00
2018-09-11T17:33:12.758Z,5.00
2018-09-11T17:34:52.707Z,6.80
2018-09-11T17:36:36.758Z,3.00
2018-09-11T17:38:18.687Z,5.00
2018-09-11T17:40:05.657Z,5.00
2018-09-11T17:43:29.136Z,5.00
2018-09-11T17:45:18.045Z,5.80
2018-09-11T17:47:01.780Z,4.40
2018-09-11T17:48:38.398Z,4.80
2018-09-11T17:50:14.333Z,5.40
2018-09-11T17:51:54.784Z,4.20
2018-09-11T17:53:32.669Z,4.00
2018-09-11T17:55:07.854Z,4.40
2018-09-11T17:56:48.403Z,5.60
2018-09-11T17:58:24.929Z,4.60
2018-09-11T18:00:06.494Z,4.80
2018-09-11T18:01:47.354Z,5.00
2018-09-11T18:03:24.790Z,4.20
2018-09-11T18:05:02.096Z,3.40
2018-09-11T18:06:38.664Z,5.00
2018-09-11T18:08:14.950Z,6.60
2018-09-11T18:09:57.509Z,5.20
2018-09-11T18:11:35.473Z,7.00
2018-09-11T18:13:13.092Z,6.20
2018-09-11T18:14:49.413Z,7.20
2018-09-11T18:16:26.420Z,8.20
2018-09-11T18:18:05.404Z,7.00
2018-09-11T18:19:42.976Z,7.00
2018-09-11T18:21:19.708Z,7.20
2018-09-11T18:22:57.777Z,6.40
2018-09-11T18:24:36.381Z,8.00
2018-09-11T18:26:12.325Z,6.80
2018-09-11T18:27:48.274Z,7.20
2018-09-11T18:29:37.479Z,8.40
2018-09-11T18:31:19.017Z,8.00
2018-09-11T18:33:06.746Z,4.80
2018-09-11T18:34:46.260Z,8.00
2018-09-11T18:36:25.757Z,7.00
2018-09-11T18:38:06.045Z,8.00
2018-09-11T18:39:43.935Z,7.40
2018-09-11T18:41:22.464Z,6.80
2018-09-11T18:43:17.408Z,6.60
2018-09-11T18:45:05.050Z,8.20
2018-09-11T18:46:49.256Z,7.00
2018-09-11T18:48:31.256Z,7.00
2018-09-11T18:54:12.658Z,6.80
2018-09-11T18:55:57.534Z,8.20
2018-09-11T18:57:37.431Z,6.40
2018-09-11T18:59:19.739Z,5.40
2018-09-11T19:01:01.479Z,6.80
2018-09-11T19:02:39.584Z,8.20
2018-09-11T19:04:15.612Z,5.00
2018-09-11T19:06:06.136Z,5.80
2018-09-11T19:07:50.170Z,8.60
2018-09-11T19:09:29.335Z,10.60
2018-09-11T19:11:05.942Z,9.00
2018-09-11T19:12:41.820Z,12.00
2018-09-11T19:14:28.607Z,13.40
2018-09-11T19:16:18.256Z,6.20
2018-09-11T19:17:56.617Z,8.80
2018-09-11T19:19:41.369Z,7.00
2018-09-11T19:21:26.587Z,10.00
2018-09-11T19:23:04.302Z,8.40
2018-09-11T19:24:52.622Z,10.00
2018-09-11T19:26:49.281Z,9.60
2018-09-11T19:28:29.849Z,7.60
2018-09-11T19:30:13.884Z,5.60
2018-09-11T19:31:50.975Z,6.20
2018-09-11T19:33:30.599Z,6.40
2018-09-11T19:35:12.035Z,6.80
2018-09-11T19:36:51.398Z,5.00
2018-09-11T19:38:33.820Z,5.00
2018-09-11T19:40:11.628Z,7.20
2018-09-11T19:41:54.644Z,9.00
2018-09-11T19:43:30.827Z,9.20
2018-09-11T19:45:13.245Z,7.20
2018-09-11T19:46:51.669Z,6.20
2018-09-11T19:48:27.220Z,7.20
2018-09-11T19:50:04.606Z,5.00
2018-09-11T19:51:44.873Z,6.00
2018-09-11T19:53:24.236Z,6.80
2018-09-11T19:55:04.098Z,6.00
2018-09-11T19:56:39.537Z,5.00
2018-09-11T19:58:24.623Z,6.00
2018-09-11T20:00:08.452Z,6.00
2018-09-11T20:01:48.646Z,5.20
2018-09-11T20:03:26.478Z,6.00
2018-09-11T20:05:05.445Z,7.60
2018-09-11T20:06:44.787Z,7.80
2018-09-11T20:08:23.546Z,10.60
2018-09-11T20:09:59.859Z,8.80
2018-09-11T20:11:37.063Z,3.80
2018-09-11T20:13:15.257Z,9.00
2018-09-11T20:14:51.440Z,9.00
2018-09-11T20:16:30.200Z,5.60
2018-09-11T20:18:12.029Z,6.00
2018-09-11T20:19:52.829Z,6.00
2018-09-11T20:21:34.117Z,6.80
2018-09-11T20:23:11.018Z,10.00
2018-09-11T20:24:49.904Z,8.00
2018-09-11T20:26:25.805Z,7.80
2018-09-11T20:28:07.359Z,6.60
2018-09-11T20:29:49.865Z,8.00
2018-09-11T20:31:34.623Z,6.00
2018-09-11T20:33:16.233Z,8.80
2018-09-11T20:34:57.353Z,7.60
2018-09-11T20:36:38.592Z,5.00
2018-09-11T20:38:16.166Z,8.20
2018-09-11T20:40:16.853Z,5.00
2018-09-11T20:41:54.927Z,7.80
2018-09-11T20:43:32.598Z,5.40
2018-09-11T20:45:16.505Z,6.80
2018-09-11T20:46:58.719Z,6.00
2018-09-11T20:48:52.166Z,11.60
2018-09-11T20:50:30.046Z,5.00
2018-09-11T20:52:11.718Z,5.40
2018-09-11T20:53:50.796Z,6.60
2018-09-11T20:55:29.500Z,9.00
2018-09-11T20:57:08.724Z,5.80
2018-09-11T20:58:47.656Z,6.00
2018-09-11T21:00:25.718Z,9.20
2018-09-11T21:02:01.520Z,6.60
2018-09-11T21:03:41.068Z,7.60
2018-09-11T21:05:20.629Z,6.20
2018-09-11T21:06:57.038Z,6.80
2018-09-11T21:08:34.252Z,12.20
2018-09-11T21:10:12.868Z,8.00
2018-09-11T21:11:54.576Z,10.00
2018-09-11T21:13:37.056Z,6.00
2018-09-11T21:15:16.952Z,8.80
2018-09-11T21:16:55.949Z,6.80
2018-09-11T21:18:36.199Z,5.00
2018-09-11T21:20:16.361Z,8.00
2018-09-11T21:21:55.394Z,5.80
2018-09-11T21:23:33.831Z,4.00
2018-09-11T21:25:14.120Z,5.00
2018-09-11T21:26:54.048Z,6.00
2018-09-11T21:28:31.541Z,5.60
2018-09-11T21:30:13.204Z,6.00
2018-09-11T21:31:51.543Z,5.80
2018-09-11T21:33:32.218Z,16.00
2018-09-11T21:35:09.051Z,10.20
2018-09-11T21:36:48.687Z,6.00
2018-09-11T21:38:28.697Z,6.00
2018-09-11T21:40:06.214Z,5.80
2018-09-11T21:41:43.634Z,7.60